KP53

Munising Lakeshore Observation Airport

Michigan, USA
METAR KP53 151856Z AUTO 33019G33KT M05/M08 A2969 RMK AO1 PK WND 34036/1757 SLP065 P0001 T10501078
Observed Flight Rules
Feb-15 @ 18:56 UTC (34 minutes ago)
Wind
330° at 19 knots
 Gusting to 33 knots
Temperatures Readings Precipitation
Current -5°C / 23°F
Dewpoint -8°C / 18°F
Humidity 80%
Altimeter 29.69" Hg
Pressure 1006.5 hPa
Elevation 187
Current Rain 0.01
METAR KP53 151856Z AUTO 33019G33KT M05/M08 A2969 RMK AO1 PK WND 34036/1757 SLP065 P0001 T10501078
Observed Flight Rules
Feb-15 @ 18:56 UTC
(34 minutes ago)
Wind
330° at 19 knots
 Gusting to 33 knots
Temperature Dewpoint
-5°C / 23°F -8°C / 18°F
Humidity Altimeter Pressure
80% 29.69" Hg 1006.5 hPa
Current Rain
0.01